Stuttgart Airport

EDDS · 巴登-符腾堡, 德国

罗盘
风向 的 风向 330° Stuttgart Airport 7/25
风: 6 kt, 2 beaufort

1 kt

6 kt
改变
0 1.000 2.000 3.000 4.000 5.000
BKN 900 ft
OVC 1.300 ft
METAR EDDS 061320Z AUTO 33006KT 9999 BKN009 OVC013 03/02 Q1017 NOSIG

METAR Stuttgart Airport - EDDS/STR

Stuttgart Airport是,德国中的大型机场。 该机场有一条跑道: 7/25. 该领域的国际民航组织标志是EDDS 它的国际航空运输协会代码是STR.

这份报告是针对2022年12月6日 14:20, 当地时间在Stuttgart Airport进行的。

机场观察

风向为330°,速度为6 kt。

可见度为10 km 或者更多。

有碎云在900 ft的高度 和 乌云密布在1.300 ft的高度。 破损或更高的上限为900 ft。

温度为3 °C,阵风为-2 °C。 露点为2 °C,相对湿度为93%。 海平面上的气压为1017 hPa (QNH)。

白天

今天,太阳从08:00升起,在16:27降落。 这适用于Stuttgart Airport,世界夏令时可能有所不同。 当地时间与世界标准时间之间的时差为+1 小时。 当前,没有夏令时有效。

公司介绍

在这个机场,你可以找到飞行学校。 本场上唯一已知的公司是Flugbetrieb Aero Beta。

体会

到Vliegles.nl去找飞行课程,跳伞和其他飞行体验。 浏览页面,了解Stuttgart Airport附近所有可用的活动。 你也可以使用搜索功能来寻找你所在地附近的特定飞行课程、跳伞或其他飞行体验。

跑道

Id 标题 侧风 逆风 侧风 %
7/25 072°-252° 6 kt 1 kt 98 %

逆风成分最大的方向会被突出显示,并用于横风计算。 这并不一定意味着这个方向在使用。

乌云

900 ft BKN 碎云
1.300 ft OVC 乌云密布

温度 & 天气

温度 3 °C
露点 2 °C
相对湿度 93%
风寒 -2 °C
Kp-index 1 (0-9)

白天

日出
08:00
中午
12:14
日落
16:27 (2:00)

小工具

你想在你的网站上有一个关于Stuttgart Airport的当前航空天气(METAR)的小部件吗?

显示HTML代码

我们和第三方通过cookies跟踪您在我们网站上的互联网行为。如果你继续,我们认为你同意我们的饼干政策